createdAt,value
2022-08-03T00:00:42.013Z,22.00
2022-08-03T00:03:10.698Z,23.33
2022-08-03T00:05:39.895Z,24.00
2022-08-03T00:08:08.549Z,20.00
2022-08-03T00:10:38.280Z,21.00
2022-08-03T00:13:06.983Z,21.00
2022-08-03T00:15:35.647Z,21.67
2022-08-03T00:18:05.084Z,22.00
2022-08-03T00:20:34.966Z,20.33
2022-08-03T00:23:06.845Z,20.00
2022-08-03T00:25:37.138Z,21.00
2022-08-03T00:28:07.027Z,18.00
2022-08-03T00:30:37.644Z,21.33
2022-08-03T00:33:06.402Z,22.33
2022-08-03T00:35:50.471Z,20.00
2022-08-03T00:38:21.197Z,22.00
2022-08-03T00:40:49.832Z,19.67
2022-08-03T00:43:18.830Z,20.67
2022-08-03T00:45:48.799Z,23.00
2022-08-03T00:48:29.630Z,21.67
2022-08-03T00:51:02.538Z,21.00
2022-08-03T00:53:31.824Z,22.33
2022-08-03T00:56:01.298Z,20.00
2022-08-03T00:58:30.138Z,23.33
2022-08-03T01:00:59.805Z,22.00
2022-08-03T01:03:28.592Z,21.67
2022-08-03T01:06:43.259Z,25.67
2022-08-03T01:10:00.677Z,24.00
2022-08-03T01:13:59.866Z,25.00
2022-08-03T01:16:22.038Z,23.67
2022-08-03T01:19:49.189Z,25.67
2022-08-03T01:22:52.634Z,21.33
2022-08-03T01:26:06.615Z,21.67
2022-08-03T01:30:10.358Z,27.67
2022-08-03T01:33:06.770Z,24.00
2022-08-03T01:36:04.323Z,24.33
2022-08-03T01:38:44.006Z,20.00
2022-08-03T01:41:23.091Z,22.33
2022-08-03T01:44:27.623Z,24.67
2022-08-03T01:46:48.826Z,20.67
2022-08-03T01:49:18.940Z,24.00
2022-08-03T01:52:03.275Z,21.67
2022-08-03T01:54:43.610Z,21.33
2022-08-03T01:57:12.954Z,25.00
2022-08-03T01:59:44.193Z,25.00
2022-08-03T02:02:32.652Z,25.33
2022-08-03T02:05:10.615Z,23.33
2022-08-03T02:07:43.061Z,22.00
2022-08-03T02:10:16.443Z,28.67
2022-08-03T02:13:08.551Z,25.00
2022-08-03T02:15:39.470Z,25.33
2022-08-03T02:18:10.956Z,24.00
2022-08-03T02:20:42.721Z,25.67
2022-08-03T02:23:12.316Z,24.33
2022-08-03T02:25:49.140Z,24.67
2022-08-03T02:28:21.624Z,25.00
2022-08-03T02:30:56.211Z,26.00
2022-08-03T02:33:37.963Z,26.00
2022-08-03T02:36:08.877Z,23.00
2022-08-03T02:38:43.407Z,26.00
2022-08-03T02:41:20.713Z,26.67
2022-08-03T02:44:06.171Z,28.67
2022-08-03T02:46:43.170Z,26.67
2022-08-03T02:49:35.043Z,24.33
2022-08-03T02:52:04.745Z,26.00
2022-08-03T02:54:35.149Z,29.67
2022-08-03T02:57:04.488Z,26.00
2022-08-03T02:59:33.351Z,29.00
2022-08-03T03:02:03.844Z,28.33
2022-08-03T03:04:33.526Z,23.33
2022-08-03T03:07:04.436Z,27.33
2022-08-03T03:09:40.427Z,27.00
2022-08-03T03:12:14.597Z,27.00
2022-08-03T03:14:43.646Z,29.33
2022-08-03T03:17:13.325Z,28.33
2022-08-03T03:19:45.316Z,25.33
2022-08-03T03:22:15.528Z,23.67
2022-08-03T03:24:46.177Z,26.33
2022-08-03T03:27:16.976Z,28.67
2022-08-03T03:29:46.042Z,22.00
2022-08-03T03:32:15.408Z,24.67
2022-08-03T03:34:44.963Z,18.00
2022-08-03T03:37:13.638Z,24.33
2022-08-03T03:39:42.373Z,26.33
2022-08-03T03:42:11.158Z,23.00
2022-08-03T03:44:40.062Z,25.33
2022-08-03T03:47:08.821Z,24.67
2022-08-03T03:49:37.783Z,26.33
2022-08-03T03:52:10.801Z,25.00
2022-08-03T03:54:45.424Z,24.00
2022-08-03T03:57:14.141Z,23.33
2022-08-03T03:59:44.231Z,24.67
2022-08-03T04:02:14.062Z,25.00
2022-08-03T04:05:01.290Z,23.33
2022-08-03T04:08:14.849Z,21.33
2022-08-03T04:11:01.093Z,23.00
2022-08-03T04:14:07.115Z,24.00
2022-08-03T04:16:43.778Z,23.33
2022-08-03T04:19:48.433Z,24.00
2022-08-03T04:22:27.184Z,23.00
2022-08-03T04:25:10.496Z,23.00
2022-08-03T04:27:42.501Z,21.00
2022-08-03T04:30:12.666Z,22.67
2022-08-03T04:32:45.844Z,22.00
2022-08-03T04:35:15.464Z,19.33
2022-08-03T04:37:50.288Z,10.00
2022-08-03T04:40:32.519Z,22.33
2022-08-03T04:43:03.139Z,20.00
2022-08-03T04:45:35.356Z,21.67
2022-08-03T04:48:05.691Z,21.67
2022-08-03T04:50:35.275Z,20.00
2022-08-03T04:53:05.506Z,23.00
2022-08-03T04:55:35.837Z,20.67
2022-08-03T04:58:06.496Z,22.67
2022-08-03T05:00:35.233Z,23.00
2022-08-03T05:03:04.023Z,20.00
2022-08-03T05:05:50.036Z,22.00
2022-08-03T05:08:20.677Z,22.00
2022-08-03T05:10:59.008Z,23.00
2022-08-03T05:13:28.114Z,21.00
2022-08-03T05:15:56.781Z,22.67
2022-08-03T05:18:25.445Z,22.33
2022-08-03T05:20:54.040Z,21.00
2022-08-03T05:23:22.696Z,18.33
2022-08-03T05:25:51.300Z,18.00
2022-08-03T05:28:20.109Z,19.00
2022-08-03T05:30:48.787Z,20.00
2022-08-03T05:33:17.595Z,16.67
2022-08-03T05:35:57.751Z,19.00
2022-08-03T05:38:34.815Z,18.00
2022-08-03T05:41:20.228Z,14.00
2022-08-03T05:43:49.449Z,19.33
2022-08-03T05:46:18.302Z,16.00
2022-08-03T05:48:46.970Z,17.00
2022-08-03T05:51:15.671Z,17.67
2022-08-03T05:53:44.694Z,19.67
2022-08-03T05:56:16.332Z,20.00
2022-08-03T05:58:48.831Z,17.00
2022-08-03T06:01:19.030Z,21.33
2022-08-03T06:03:48.413Z,20.67
2022-08-03T06:06:18.457Z,18.67
2022-08-03T06:08:48.994Z,19.33
2022-08-03T06:11:17.823Z,21.67
2022-08-03T06:13:47.413Z,17.67
2022-08-03T06:16:16.325Z,20.33
2022-08-03T06:18:44.963Z,21.33
2022-08-03T06:21:15.139Z,21.50
2022-08-03T06:23:54.141Z,18.00
2022-08-03T06:26:29.065Z,24.00
2022-08-03T06:28:57.742Z,22.00
2022-08-03T06:31:33.383Z,20.67
2022-08-03T06:34:31.298Z,20.33
2022-08-03T06:37:01.751Z,19.00
2022-08-03T06:39:31.104Z,22.00
2022-08-03T06:41:59.596Z,23.67
2022-08-03T06:44:29.135Z,21.00
2022-08-03T06:46:58.815Z,16.67
2022-08-03T06:49:27.922Z,19.00
2022-08-03T06:52:05.134Z,21.67
2022-08-03T06:54:36.328Z,20.00
2022-08-03T06:57:06.119Z,24.00
2022-08-03T07:00:06.527Z,18.00
2022-08-03T07:02:23.449Z,21.00
2022-08-03T07:04:52.289Z,14.33
2022-08-03T07:07:21.732Z,18.67
2022-08-03T07:09:55.053Z,19.33
2022-08-03T07:12:29.223Z,21.00
2022-08-03T07:15:01.630Z,19.33
2022-08-03T07:17:34.990Z,20.00
2022-08-03T07:20:09.380Z,22.00
2022-08-03T07:22:39.085Z,21.67
2022-08-03T07:25:09.562Z,19.00
2022-08-03T07:27:39.100Z,17.33
2022-08-03T07:30:09.591Z,16.33
2022-08-03T07:32:50.386Z,19.67
2022-08-03T07:35:24.962Z,17.67
2022-08-03T07:37:55.290Z,17.00
2022-08-03T07:40:25.112Z,19.00
2022-08-03T07:43:03.501Z,19.33
2022-08-03T07:45:32.783Z,16.33
2022-08-03T07:48:02.202Z,20.33
2022-08-03T07:50:31.221Z,20.33
2022-08-03T07:52:59.995Z,20.00
2022-08-03T07:55:28.914Z,18.67
2022-08-03T07:58:05.408Z,20.67
2022-08-03T08:00:35.120Z,19.00
2022-08-03T08:03:04.457Z,16.00
2022-08-03T08:05:34.731Z,16.33
2022-08-03T08:08:05.531Z,16.33
2022-08-03T08:10:37.229Z,19.71
2022-08-03T08:13:05.899Z,17.67
2022-08-03T08:15:34.587Z,18.00
2022-08-03T08:18:03.583Z,17.00
2022-08-03T08:20:39.049Z,15.67
2022-08-03T08:23:41.618Z,19.67
2022-08-03T08:25:58.625Z,17.00
2022-08-03T08:28:32.855Z,18.00
2022-08-03T08:31:03.478Z,16.67
2022-08-03T08:34:00.983Z,17.00
2022-08-03T08:36:22.141Z,16.00
2022-08-03T08:38:50.855Z,16.00
2022-08-03T08:41:19.602Z,16.00
2022-08-03T08:43:48.181Z,15.33
2022-08-03T08:46:23.407Z,16.33
2022-08-03T08:48:54.750Z,17.00
2022-08-03T08:51:54.658Z,15.00
2022-08-03T08:54:23.017Z,50.67
2022-08-03T08:56:52.842Z,16.33
2022-08-03T08:59:22.641Z,16.33
2022-08-03T09:01:52.079Z,16.50
2022-08-03T09:04:20.902Z,11.67
2022-08-03T09:07:10.432Z,17.00
2022-08-03T09:10:08.471Z,17.33
2022-08-03T09:12:42.930Z,19.33
2022-08-03T09:15:28.272Z,19.67
2022-08-03T09:18:01.561Z,15.67
2022-08-03T09:20:34.691Z,14.67
2022-08-03T09:23:58.989Z,12.67
2022-08-03T09:26:01.810Z,15.00
2022-08-03T09:29:00.037Z,14.00
2022-08-03T09:31:43.720Z,14.00
2022-08-03T09:34:18.120Z,17.00
2022-08-03T09:36:52.455Z,14.00
2022-08-03T09:39:41.802Z,14.00
2022-08-03T09:42:23.869Z,14.33
2022-08-03T09:44:53.341Z,12.67
2022-08-03T09:47:33.200Z,13.33
2022-08-03T09:50:09.181Z,13.00
2022-08-03T09:52:49.851Z,14.00
2022-08-03T09:56:30.709Z,12.00
2022-08-03T09:58:10.777Z,13.33
2022-08-03T10:01:05.332Z,13.00
2022-08-03T10:04:03.332Z,12.00
2022-08-03T10:06:29.092Z,11.67
2022-08-03T10:09:17.519Z,11.33
2022-08-03T10:11:47.122Z,9.67
2022-08-03T10:14:19.323Z,7.67
2022-08-03T10:16:49.811Z,11.00
2022-08-03T10:19:19.516Z,13.00
2022-08-03T10:21:55.766Z,8.33
2022-08-03T10:24:31.176Z,14.33
2022-08-03T10:27:11.893Z,14.33
2022-08-03T10:29:49.577Z,13.67
2022-08-03T10:32:39.600Z,11.67
2022-08-03T10:35:20.166Z,13.00
2022-08-03T10:38:17.922Z,11.00
2022-08-03T10:40:49.948Z,12.33
2022-08-03T10:43:28.041Z,13.33
2022-08-03T10:45:57.311Z,9.00
2022-08-03T10:48:27.124Z,13.33
2022-08-03T10:50:56.313Z,13.00
2022-08-03T10:53:54.329Z,14.00
2022-08-03T10:57:13.600Z,13.67
2022-08-03T11:00:06.415Z,49.67
2022-08-03T11:03:16.954Z,18.00
2022-08-03T11:05:54.572Z,12.00
2022-08-03T11:08:31.007Z,13.00
2022-08-03T11:11:24.230Z,13.50
2022-08-03T11:14:03.577Z,13.50
2022-08-03T11:16:37.181Z,14.50
2022-08-03T11:19:10.010Z,14.00
2022-08-03T11:21:51.425Z,13.00
2022-08-03T11:24:51.658Z,10.33
2022-08-03T11:27:21.724Z,14.67
2022-08-03T11:30:16.444Z,12.67
2022-08-03T11:32:46.514Z,12.00
2022-08-03T11:35:35.633Z,11.67
2022-08-03T11:38:07.433Z,13.33
2022-08-03T11:40:48.655Z,13.00
2022-08-03T11:43:24.233Z,13.33
2022-08-03T11:46:03.479Z,13.33
2022-08-03T11:48:44.736Z,13.00
2022-08-03T11:51:30.055Z,9.33
2022-08-03T11:54:06.736Z,12.00
2022-08-03T11:56:50.468Z,16.33
2022-08-03T11:59:21.997Z,13.67
2022-08-03T12:01:51.662Z,14.67
2022-08-03T12:04:20.252Z,12.00
2022-08-03T12:07:03.850Z,12.00
2022-08-03T12:09:34.589Z,14.33
2022-08-03T12:12:04.571Z,11.67
2022-08-03T12:14:49.235Z,13.33
2022-08-03T12:17:20.262Z,11.67
2022-08-03T12:19:48.999Z,9.00
2022-08-03T12:22:30.757Z,14.00
2022-08-03T12:24:59.330Z,15.00
2022-08-03T12:27:31.918Z,13.50
2022-08-03T12:30:02.125Z,13.00
2022-08-03T12:32:31.832Z,13.00
2022-08-03T12:35:06.121Z,13.33
2022-08-03T12:37:34.978Z,11.33
2022-08-03T12:40:10.444Z,13.00
2022-08-03T12:42:41.058Z,7.00
2022-08-03T12:45:28.875Z,8.33
2022-08-03T12:48:03.063Z,10.00
2022-08-03T12:50:35.260Z,10.00
2022-08-03T12:53:09.121Z,9.00
2022-08-03T12:56:04.650Z,10.33
2022-08-03T12:58:36.956Z,10.33
2022-08-03T13:01:09.159Z,9.67
2022-08-03T13:03:45.908Z,9.00
2022-08-03T13:06:26.616Z,10.33
2022-08-03T13:09:07.740Z,8.33
2022-08-03T13:11:58.025Z,7.00
2022-08-03T13:14:24.670Z,9.33
2022-08-03T13:16:53.097Z,11.33
2022-08-03T13:19:21.531Z,11.33
2022-08-03T13:22:01.706Z,12.00
2022-08-03T13:24:34.067Z,9.67
2022-08-03T13:28:02.627Z,12.00
2022-08-03T13:29:54.499Z,9.33
2022-08-03T13:32:24.083Z,9.00
2022-08-03T13:34:52.766Z,10.00
2022-08-03T13:37:21.832Z,12.00
2022-08-03T13:40:00.341Z,8.67
2022-08-03T13:42:34.379Z,9.67
2022-08-03T13:45:05.042Z,12.00
2022-08-03T13:47:33.588Z,12.33
2022-08-03T13:50:03.145Z,11.50
2022-08-03T13:52:35.067Z,12.00
2022-08-03T13:55:08.895Z,9.00
2022-08-03T13:58:02.872Z,10.33
2022-08-03T14:00:29.216Z,9.67
2022-08-03T14:03:06.521Z,11.33
2022-08-03T14:05:38.918Z,11.00
2022-08-03T14:08:08.836Z,7.33
2022-08-03T14:10:45.888Z,12.67
2022-08-03T14:13:16.848Z,15.33
2022-08-03T14:15:49.716Z,12.00
2022-08-03T14:18:28.825Z,11.50
2022-08-03T14:21:07.315Z,9.00
2022-08-03T14:23:40.579Z,10.33
2022-08-03T14:26:12.157Z,12.00
2022-08-03T14:28:41.215Z,13.00
2022-08-03T14:32:09.964Z,11.67
2022-08-03T14:33:58.229Z,11.00
2022-08-03T14:36:26.784Z,11.67
2022-08-03T14:39:00.796Z,14.00
2022-08-03T14:41:29.939Z,11.67
2022-08-03T14:44:00.396Z,13.00
2022-08-03T14:46:32.299Z,12.67
2022-08-03T14:50:36.927Z,13.00
2022-08-03T14:51:53.705Z,11.00
2022-08-03T14:54:23.726Z,11.00
2022-08-03T14:56:52.703Z,12.00
2022-08-03T14:59:21.163Z,11.33
2022-08-03T15:02:02.822Z,12.33
2022-08-03T15:04:33.451Z,12.67
2022-08-03T15:07:01.983Z,13.50
2022-08-03T15:09:30.538Z,12.33
2022-08-03T15:11:59.941Z,11.33
2022-08-03T15:14:33.214Z,11.00
2022-08-03T15:17:03.832Z,13.00
2022-08-03T15:20:02.037Z,11.00
2022-08-03T15:22:25.332Z,11.00
2022-08-03T15:26:28.152Z,12.00
2022-08-03T15:28:02.823Z,11.00
2022-08-03T15:30:37.002Z,12.67
2022-08-03T15:33:06.757Z,12.00
2022-08-03T15:35:35.634Z,10.67
2022-08-03T15:38:09.023Z,11.50
2022-08-03T15:40:38.528Z,10.33
2022-08-03T15:43:07.171Z,13.67
2022-08-03T15:45:36.303Z,10.67
2022-08-03T15:48:06.961Z,11.50
2022-08-03T15:50:35.424Z,13.00
2022-08-03T15:53:04.712Z,11.33
2022-08-03T15:55:34.495Z,12.33
2022-08-03T15:59:11.352Z,11.33
2022-08-03T16:00:51.401Z,11.67
2022-08-03T16:03:19.930Z,9.67
2022-08-03T16:05:48.426Z,12.00
2022-08-03T16:08:16.920Z,10.33
2022-08-03T16:10:47.997Z,9.33
2022-08-03T16:13:17.058Z,9.33
2022-08-03T16:15:45.572Z,10.00
2022-08-03T16:18:14.245Z,12.33
2022-08-03T16:20:42.950Z,13.00
2022-08-03T16:23:12.759Z,13.00
2022-08-03T16:25:49.083Z,14.67
2022-08-03T16:28:19.271Z,11.33
2022-08-03T16:30:48.261Z,11.67
2022-08-03T16:33:17.924Z,13.67
2022-08-03T16:35:49.778Z,12.33
2022-08-03T16:38:19.624Z,12.00
2022-08-03T16:40:52.283Z,12.00
2022-08-03T16:43:22.714Z,12.33
2022-08-03T16:45:52.197Z,15.00
2022-08-03T16:48:20.986Z,14.50
2022-08-03T16:50:49.865Z,11.00
2022-08-03T16:53:18.655Z,13.33
2022-08-03T16:56:05.569Z,11.33
2022-08-03T16:58:42.449Z,14.00
2022-08-03T17:01:21.754Z,15.00
2022-08-03T17:04:03.207Z,15.00
2022-08-03T17:06:44.663Z,13.00
2022-08-03T17:09:19.079Z,15.00
2022-08-03T17:11:52.006Z,13.33
2022-08-03T17:14:28.557Z,13.33
2022-08-03T17:17:02.265Z,14.00
2022-08-03T17:19:34.996Z,13.50
2022-08-03T17:22:18.352Z,11.50
2022-08-03T17:24:52.254Z,14.00
2022-08-03T17:28:49.455Z,13.67
2022-08-03T17:30:20.496Z,11.67
2022-08-03T17:32:52.622Z,15.67
2022-08-03T17:35:36.544Z,13.33
2022-08-03T17:38:13.742Z,14.33
2022-08-03T17:40:50.172Z,15.33
2022-08-03T17:44:13.677Z,15.33
2022-08-03T17:46:10.834Z,16.00
2022-08-03T17:48:42.225Z,16.00
2022-08-03T17:51:52.943Z,15.00
2022-08-03T17:55:54.958Z,15.00
2022-08-03T17:58:17.110Z,14.00
2022-08-03T18:02:00.569Z,14.50
2022-08-03T18:04:10.670Z,14.00
2022-08-03T18:06:55.776Z,14.00
2022-08-03T18:10:04.900Z,14.00
2022-08-03T18:12:28.612Z,17.33
2022-08-03T18:15:08.667Z,17.00
2022-08-03T18:17:55.427Z,14.67
2022-08-03T18:20:34.199Z,18.50
2022-08-03T18:23:20.651Z,16.67
2022-08-03T18:26:10.773Z,17.00
2022-08-03T18:28:41.591Z,17.50
2022-08-03T18:31:13.070Z,15.00
2022-08-03T18:34:16.432Z,16.00
2022-08-03T18:36:55.808Z,15.33
2022-08-03T18:39:25.441Z,19.00
2022-08-03T18:41:54.100Z,20.00
2022-08-03T18:44:45.628Z,16.00
2022-08-03T18:48:02.469Z,19.00
2022-08-03T18:51:28.654Z,18.33
2022-08-03T18:54:48.927Z,19.00
2022-08-03T18:57:30.293Z,20.67
2022-08-03T19:00:15.410Z,19.33
2022-08-03T19:03:05.175Z,18.67
2022-08-03T19:05:52.978Z,16.67
2022-08-03T19:08:50.524Z,18.00
2022-08-03T19:12:14.016Z,21.00
2022-08-03T19:14:42.496Z,19.33
2022-08-03T19:17:14.445Z,22.75
2022-08-03T19:19:52.763Z,16.67
2022-08-03T19:22:23.199Z,18.67
2022-08-03T19:24:58.523Z,20.33
2022-08-03T19:27:30.850Z,23.00
2022-08-03T19:30:14.109Z,22.33
2022-08-03T19:32:52.052Z,25.00
2022-08-03T19:35:51.447Z,22.33
2022-08-03T19:38:10.793Z,20.67
2022-08-03T19:40:51.125Z,28.33
2022-08-03T19:43:53.789Z,22.00
2022-08-03T19:46:31.794Z,29.67
2022-08-03T19:49:16.034Z,24.00
2022-08-03T19:52:00.759Z,26.25
2022-08-03T19:54:53.250Z,25.33
2022-08-03T19:57:27.388Z,33.00
2022-08-03T19:59:58.427Z,34.75
2022-08-03T20:02:35.821Z,38.00
2022-08-03T20:05:05.517Z,37.00
2022-08-03T20:07:47.659Z,38.00
2022-08-03T20:10:19.104Z,30.00
2022-08-03T20:12:49.821Z,29.00
2022-08-03T20:15:31.293Z,32.00
2022-08-03T20:18:00.868Z,28.33
2022-08-03T20:20:37.327Z,29.33
2022-08-03T20:23:13.964Z,25.00
2022-08-03T20:25:58.590Z,22.33
2022-08-03T20:28:51.169Z,19.00
2022-08-03T20:31:30.617Z,19.00
2022-08-03T20:34:06.643Z,19.00
2022-08-03T20:36:35.217Z,13.50
2022-08-03T20:39:07.433Z,18.00
2022-08-03T20:41:36.964Z,19.00
2022-08-03T20:44:06.938Z,19.00
2022-08-03T20:46:50.072Z,18.33
2022-08-03T20:49:26.139Z,20.00
2022-08-03T20:51:55.252Z,18.00
2022-08-03T20:54:31.142Z,18.33
2022-08-03T20:59:51.752Z,19.33
2022-08-03T21:05:11.833Z,19.67
2022-08-03T21:08:04.894Z,19.67
2022-08-03T21:10:40.730Z,18.67
2022-08-03T21:13:07.725Z,20.00
2022-08-03T21:13:07.898Z,20.33
2022-08-03T21:13:40.947Z,17.33
2022-08-03T21:16:14.943Z,21.00
2022-08-03T21:18:50.578Z,17.67
2022-08-03T21:21:24.164Z,18.00
2022-08-03T21:23:55.916Z,21.33
2022-08-03T21:26:27.240Z,17.00
2022-08-03T21:28:57.554Z,18.00
2022-08-03T21:31:27.187Z,19.00
2022-08-03T21:34:03.777Z,20.00
2022-08-03T21:36:36.902Z,18.00
2022-08-03T21:39:09.764Z,20.33
2022-08-03T21:41:40.983Z,21.00
2022-08-03T21:44:09.732Z,20.33
2022-08-03T21:46:42.294Z,21.33
2022-08-03T21:49:51.806Z,17.67
2022-08-03T21:52:06.576Z,10.33
2022-08-03T21:54:43.858Z,18.00
2022-08-03T21:57:43.781Z,20.00
2022-08-03T22:00:19.854Z,22.00
2022-08-03T22:02:57.202Z,19.33
2022-08-03T22:05:43.611Z,18.67
2022-08-03T22:08:16.555Z,19.00
2022-08-03T22:10:47.712Z,20.00
2022-08-03T22:13:43.996Z,19.00
2022-08-03T22:16:09.016Z,20.33
2022-08-03T22:18:45.992Z,18.00
2022-08-03T22:21:27.991Z,18.00
2022-08-03T22:24:06.918Z,20.00
2022-08-03T22:26:36.976Z,18.00
2022-08-03T22:29:08.771Z,17.50
2022-08-03T22:31:58.201Z,21.00
2022-08-03T22:34:28.106Z,19.00
2022-08-03T22:37:03.793Z,19.00
2022-08-03T22:39:33.462Z,21.67
2022-08-03T22:42:06.205Z,15.00
2022-08-03T22:44:36.590Z,19.00
2022-08-03T22:47:06.851Z,17.50
2022-08-03T22:49:36.681Z,19.33
2022-08-03T22:52:07.583Z,19.00
2022-08-03T22:54:36.495Z,21.33
2022-08-03T22:57:07.163Z,20.00
2022-08-03T22:59:41.232Z,20.50
2022-08-03T23:02:20.945Z,20.67
2022-08-03T23:04:56.284Z,21.67
2022-08-03T23:07:45.762Z,19.33
2022-08-03T23:10:15.724Z,20.33
2022-08-03T23:12:49.853Z,20.00
2022-08-03T23:15:18.885Z,21.67
2022-08-03T23:17:58.605Z,20.67
2022-08-03T23:20:28.925Z,18.33
2022-08-03T23:23:00.747Z,20.00
2022-08-03T23:25:29.824Z,21.67
2022-08-03T23:28:04.934Z,23.33
2022-08-03T23:30:38.002Z,21.00
2022-08-03T23:33:09.679Z,21.00
2022-08-03T23:36:28.014Z,23.00
2022-08-03T23:38:50.439Z,23.33
2022-08-03T23:41:20.511Z,24.33
2022-08-03T23:43:54.082Z,25.25
2022-08-03T23:46:23.380Z,27.33
2022-08-03T23:48:52.089Z,28.00
2022-08-03T23:51:57.800Z,26.67
2022-08-03T23:54:52.060Z,20.67
2022-08-03T23:57:44.925Z,25.00
